PWSweather.com
Personal Weather Stations
Station Observations
KJ4AJP
Beautiful Downtown Gardner, Martin, TN 38237

Beautiful Downtown GardnerMartin, TN 38237

Lat: 36.358, Lon: -88.8994

Elevation: 384.3

Station Type: TP1080WC

http://weather.mambm.com/

High Low Average
Temperature 63.5°F17.5°C 52.0°F11.1°C 57.8°F14.3°C
Dew Point 63.2°F17.3°C 51.7°F10.9°C 57.5°F14.2°C
Winds 5.4 mph 8.7 kmh Calm Calm 2.0 mph S3.2 kmh S
Wind Gusts 12.1 mph19.5 kmh 1.6 mph2.6 kmh 6.0 mph9.7 kmh
Humidity 99% 99% 99%
Pressure 30.30 in1026.1 mb 30.11 in1019.6 mb -
Precipitation 1.29 in32.8 mm - -
Hour Temp Dew Point Humidity Winds Wind Gusts Pressure Precip Precip Rate Daily Precip Total
12:00 AM 52.0°F11.1°C 51.7°F10.9°C 99% 3.8 mph NE6.1 kmh NE 6.9 mph11.1 kmh 30.21 in1023.0 mb 0.14 in3.6 mm 0.00 in0.0 mm 0.14 in3.6 mm
12:15 AM 52.0°F11.1°C 51.7°F10.9°C 99% 2.2 mph NE3.5 kmh NE 9.2 mph14.8 kmh 30.20 in1022.7 mb 0.13 in3.3 mm 0.00 in0.0 mm 0.01 in0.3 mm
12:30 AM 52.2°F11.2°C 51.9°F11.1°C 99% 3.8 mph ENE6.1 kmh ENE 7.6 mph12.2 kmh 30.19 in1022.4 mb 0.08 in2.0 mm 0.00 in0.0 mm 0.05 in1.3 mm
12:45 AM 52.3°F11.3°C 52.1°F11.2°C 99% 2.2 mph ENE3.5 kmh ENE 6.9 mph11.1 kmh 30.18 in1022.0 mb 0.06 in1.5 mm 0.00 in0.0 mm 0.05 in1.3 mm
01:00 AM 52.5°F11.4°C 52.3°F11.3°C 99% Calm Calm 5.4 mph8.7 kmh 30.20 in1022.7 mb 0.07 in1.8 mm 0.01 in0.3 mm 0.07 in1.8 mm
01:15 AM 52.9°F11.6°C 52.6°F11.4°C 99% 2.2 mph E3.5 kmh E 5.4 mph8.7 kmh 30.18 in1022.0 mb 0.24 in6.1 mm 0.68 in17.3 mm 0.25 in6.4 mm
01:30 AM 53.2°F11.8°C 53.0°F11.7°C 99% 1.6 mph NW2.6 kmh NW 11.4 mph18.3 kmh 30.24 in1024.0 mb 0.27 in6.9 mm 0.12 in3.0 mm 0.32 in8.1 mm
01:45 AM 53.4°F11.9°C 53.2°F11.8°C 99% 2.2 mph E3.5 kmh E 3.8 mph6.1 kmh 30.21 in1023.0 mb 0.38 in9.7 mm 0.44 in11.2 mm 0.43 in10.9 mm
02:00 AM 53.6°F12.0°C 53.3°F11.8°C 99% 2.2 mph SE3.5 kmh SE 6.0 mph9.7 kmh 30.20 in1022.7 mb 0.39 in9.9 mm 0.01 in0.3 mm 0.47 in11.9 mm
02:15 AM 53.8°F12.1°C 53.5°F11.9°C 99% 1.6 mph SE2.6 kmh SE 6.0 mph9.7 kmh 30.21 in1023.0 mb 0.26 in6.6 mm 0.00 in0.0 mm 0.52 in13.2 mm
02:30 AM 53.8°F12.1°C 53.5°F11.9°C 99% 2.2 mph SE3.5 kmh SE 4.5 mph7.2 kmh 30.20 in1022.7 mb 0.24 in6.1 mm 0.00 in0.0 mm 0.56 in14.2 mm
02:45 AM 54.1°F12.3°C 53.9°F12.2°C 99% 3.1 mph SE5.0 kmh SE 7.6 mph12.2 kmh 30.18 in1022.0 mb 0.18 in4.6 mm 0.00 in0.0 mm 0.60 in15.2 mm
03:00 AM 54.9°F12.7°C 54.6°F12.6°C 99% 3.8 mph ESE6.1 kmh ESE 8.3 mph13.4 kmh 30.16 in1021.3 mb 0.14 in3.6 mm 0.00 in0.0 mm 0.61 in15.5 mm
03:15 AM 55.4°F13.0°C 55.1°F12.8°C 99% 1.6 mph SE2.6 kmh SE 7.6 mph12.2 kmh 30.17 in1021.7 mb 0.13 in3.3 mm 0.00 in0.0 mm 0.65 in16.5 mm
03:30 AM 55.9°F13.3°C 55.7°F13.2°C 99% 1.6 mph SE2.6 kmh SE 7.6 mph12.2 kmh 30.17 in1021.7 mb 0.09 in2.3 mm 0.00 in0.0 mm 0.65 in16.5 mm
03:45 AM 55.9°F13.3°C 55.7°F13.2°C 99% 1.6 mph SE2.6 kmh SE 3.8 mph6.1 kmh 30.17 in1021.7 mb 0.05 in1.3 mm 0.00 in0.0 mm 0.65 in16.5 mm
04:00 AM 56.3°F13.5°C 56.0°F13.3°C 99% 2.2 mph ESE3.5 kmh ESE 5.4 mph8.7 kmh 30.16 in1021.3 mb 0.04 in1.0 mm 0.00 in0.0 mm 0.65 in16.5 mm
04:15 AM 56.5°F13.6°C 56.2°F13.4°C 99% 2.2 mph SE3.5 kmh SE 3.8 mph6.1 kmh 30.16 in1021.3 mb 0.00 in0.0 mm 0.00 in0.0 mm 0.65 in16.5 mm
04:30 AM 57.0°F13.9°C 56.8°F13.8°C 99% 3.1 mph SE5.0 kmh SE 4.5 mph7.2 kmh 30.16 in1021.3 mb 0.00 in0.0 mm 0.00 in0.0 mm 0.65 in16.5 mm
04:45 AM 57.7°F14.3°C 57.5°F14.2°C 99% 1.6 mph SE2.6 kmh SE 5.4 mph8.7 kmh 30.16 in1021.3 mb 0.00 in0.0 mm 0.00 in0.0 mm 0.65 in16.5 mm
05:00 AM 58.5°F14.7°C 58.2°F14.6°C 99% 2.2 mph SSE3.5 kmh SSE 6.9 mph11.1 kmh 30.17 in1021.7 mb 0.00 in0.0 mm 0.00 in0.0 mm 0.65 in16.5 mm
05:15 AM 58.3°F14.6°C 58.0°F14.4°C 99% 1.6 mph WNW2.6 kmh WNW 8.3 mph13.4 kmh 30.20 in1022.7 mb 0.01 in0.3 mm 0.04 in1.0 mm 0.66 in16.8 mm
05:30 AM 58.1°F14.5°C 57.8°F14.3°C 99% 2.2 mph SSW3.5 kmh SSW 7.6 mph12.2 kmh 30.20 in1022.7 mb 0.08 in2.0 mm 0.28 in7.1 mm 0.73 in18.5 mm
05:45 AM 59.2°F15.1°C 58.9°F14.9°C 99% 2.2 mph WSW3.5 kmh WSW 9.2 mph14.8 kmh 30.21 in1023.0 mb 0.13 in3.3 mm 0.20 in5.1 mm 0.78 in19.8 mm
06:00 AM 59.0°F15.0°C 58.7°F14.8°C 99% 0.7 mph WNW1.1 kmh WNW 4.5 mph7.2 kmh 30.21 in1023.0 mb 0.13 in3.3 mm 0.00 in0.0 mm 0.78 in19.8 mm
06:15 AM 58.5°F14.7°C 58.2°F14.6°C 99% Calm Calm 1.6 mph2.6 kmh 30.21 in1023.0 mb 0.13 in3.3 mm 0.00 in0.0 mm 0.79 in20.1 mm
06:30 AM 58.3°F14.6°C 58.0°F14.4°C 99% 1.6 mph SE2.6 kmh SE 3.1 mph5.0 kmh 30.21 in1023.0 mb 0.09 in2.3 mm 0.00 in0.0 mm 0.83 in21.1 mm
06:45 AM 58.3°F14.6°C 58.0°F14.4°C 99% 2.2 mph WSW3.5 kmh WSW 3.8 mph6.1 kmh 30.24 in1024.0 mb 0.06 in1.5 mm 0.00 in0.0 mm 0.84 in21.3 mm
07:00 AM 58.5°F14.7°C 58.2°F14.6°C 99% 5.4 mph SW8.7 kmh SW 9.2 mph14.8 kmh 30.24 in1024.0 mb 0.15 in3.8 mm 0.12 in3.0 mm 0.93 in23.6 mm
07:15 AM 58.8°F14.9°C 58.6°F14.8°C 99% 3.1 mph SSW5.0 kmh SSW 12.1 mph19.5 kmh 30.24 in1024.0 mb 0.30 in7.6 mm 0.60 in15.2 mm 1.09 in27.7 mm
07:30 AM 59.5°F15.3°C 59.3°F15.2°C 99% 3.8 mph SSW6.1 kmh SSW 12.1 mph19.5 kmh 30.25 in1024.4 mb 0.30 in7.6 mm 0.00 in0.0 mm 1.12 in28.4 mm
07:45 AM 59.9°F15.5°C 59.6°F15.3°C 99% 4.5 mph WSW7.2 kmh WSW 12.1 mph19.5 kmh 30.25 in1024.4 mb 0.30 in7.6 mm 0.00 in0.0 mm 1.13 in28.7 mm
08:00 AM 59.9°F15.5°C 59.6°F15.3°C 99% 0.7 mph WSW1.1 kmh WSW 10.7 mph17.2 kmh 30.27 in1025.1 mb 0.21 in5.3 mm 0.00 in0.0 mm 1.15 in29.2 mm
08:15 AM 59.9°F15.5°C 59.6°F15.3°C 99% 4.5 mph WSW7.2 kmh WSW 7.6 mph12.2 kmh 30.27 in1025.1 mb 0.07 in1.8 mm 0.00 in0.0 mm 1.16 in29.5 mm
08:30 AM 59.9°F15.5°C 59.6°F15.3°C 99% 4.5 mph WSW7.2 kmh WSW 9.8 mph15.8 kmh 30.27 in1025.1 mb 0.05 in1.3 mm 0.00 in0.0 mm 1.17 in29.7 mm
08:45 AM 60.1°F15.6°C 59.8°F15.4°C 99% 2.2 mph SW3.5 kmh SW 5.4 mph8.7 kmh 30.28 in1025.4 mb 0.04 in1.0 mm 0.00 in0.0 mm 1.17 in29.7 mm
09:00 AM 60.1°F15.6°C 59.8°F15.4°C 99% 2.2 mph WSW3.5 kmh WSW 5.4 mph8.7 kmh 30.28 in1025.4 mb 0.04 in1.0 mm 0.00 in0.0 mm 1.18 in30.0 mm
09:15 AM 60.1°F15.6°C 59.8°F15.4°C 99% 5.4 mph WSW8.7 kmh WSW 9.8 mph15.8 kmh 30.28 in1025.4 mb 0.04 in1.0 mm 0.00 in0.0 mm 1.19 in30.2 mm
09:30 AM 59.9°F15.5°C 59.6°F15.3°C 99% 4.5 mph WSW7.2 kmh WSW 12.1 mph19.5 kmh 30.30 in1026.1 mb 0.02 in0.5 mm 0.00 in0.0 mm 1.19 in30.2 mm
09:45 AM 59.7°F15.4°C 59.5°F15.3°C 99% 4.5 mph WSW7.2 kmh WSW 7.6 mph12.2 kmh 30.29 in1025.7 mb 0.06 in1.5 mm 0.16 in4.1 mm 1.23 in31.2 mm
10:00 AM 59.5°F15.3°C 59.3°F15.2°C 99% 1.6 mph W2.6 kmh W 4.5 mph7.2 kmh 30.28 in1025.4 mb 0.08 in2.0 mm 0.03 in0.8 mm 1.26 in32.0 mm
10:15 AM 59.7°F15.4°C 59.5°F15.3°C 99% 2.2 mph WSW3.5 kmh WSW 4.5 mph7.2 kmh 30.27 in1025.1 mb 0.08 in2.0 mm 0.00 in0.0 mm 1.28 in32.5 mm
10:30 AM 59.7°F15.4°C 59.5°F15.3°C 99% 2.2 mph WSW3.5 kmh WSW 4.5 mph7.2 kmh 30.27 in1025.1 mb 0.09 in2.3 mm 0.04 in1.0 mm 1.29 in32.8 mm
10:45 AM 60.1°F15.6°C 59.8°F15.4°C 99% 1.6 mph SSE2.6 kmh SSE 4.5 mph7.2 kmh 30.25 in1024.4 mb 0.06 in1.5 mm 0.00 in0.0 mm 1.29 in32.8 mm
11:00 AM 60.8°F16.0°C 60.5°F15.8°C 99% 1.6 mph S2.6 kmh S 5.4 mph8.7 kmh 30.25 in1024.4 mb 0.02 in0.5 mm 0.00 in0.0 mm 1.29 in32.8 mm
11:15 AM 61.7°F16.5°C 61.4°F16.3°C 99% 2.2 mph SSE3.5 kmh SSE 6.0 mph9.7 kmh 30.25 in1024.4 mb 0.01 in0.3 mm 0.00 in0.0 mm 1.29 in32.8 mm
11:30 AM 62.4°F16.9°C 62.2°F16.8°C 99% 1.6 mph SE2.6 kmh SE 6.9 mph11.1 kmh 30.24 in1024.0 mb 0.00 in0.0 mm 0.00 in0.0 mm 1.29 in32.8 mm
11:45 AM 63.1°F17.3°C 62.9°F17.2°C 99% 2.2 mph SE3.5 kmh SE 7.6 mph12.2 kmh 30.22 in1023.4 mb 0.00 in0.0 mm 0.00 in0.0 mm 1.29 in32.8 mm
12:00 PM 63.3°F17.4°C 63.1°F17.3°C 99% 3.1 mph SW5.0 kmh SW 6.9 mph11.1 kmh 30.24 in1024.0 mb 0.00 in0.0 mm 0.00 in0.0 mm 1.29 in32.8 mm
12:15 PM 63.5°F17.5°C 63.2°F17.3°C 99% 2.2 mph WSW3.5 kmh WSW 6.0 mph9.7 kmh 30.24 in1024.0 mb 0.00 in0.0 mm 0.00 in0.0 mm 1.29 in32.8 mm
12:30 PM 63.1°F17.3°C 62.9°F17.2°C 99% 1.6 mph WNW2.6 kmh WNW 5.4 mph8.7 kmh 30.24 in1024.0 mb 0.00 in0.0 mm 0.00 in0.0 mm 1.29 in32.8 mm
12:45 PM 63.1°F17.3°C 62.9°F17.2°C 99% 3.8 mph W6.1 kmh W 6.9 mph11.1 kmh 30.24 in1024.0 mb 0.00 in0.0 mm 0.00 in0.0 mm 1.29 in32.8 mm
01:00 PM 63.5°F17.5°C 63.2°F17.3°C 99% 0.7 mph WNW1.1 kmh WNW 6.9 mph11.1 kmh 30.23 in1023.7 mb 0.00 in0.0 mm 0.00 in0.0 mm 1.29 in32.8 mm
01:15 PM 61.9°F16.6°C 61.6°F16.4°C 99% 2.2 mph NNW3.5 kmh NNW 5.4 mph8.7 kmh 30.22 in1023.4 mb 0.00 in0.0 mm 0.00 in0.0 mm 1.29 in32.8 mm
01:30 PM 60.4°F15.8°C 60.2°F15.7°C 99% 1.6 mph N2.6 kmh N 7.6 mph12.2 kmh 30.21 in1023.0 mb 0.00 in0.0 mm 0.00 in0.0 mm 1.29 in32.8 mm
01:45 PM 60.4°F15.8°C 60.2°F15.7°C 99% 2.2 mph NNE3.5 kmh NNE 4.5 mph7.2 kmh 30.20 in1022.7 mb 0.00 in0.0 mm 0.00 in0.0 mm 1.29 in32.8 mm
02:00 PM 61.0°F16.1°C 60.7°F15.9°C 99% 1.6 mph N2.6 kmh N 4.5 mph7.2 kmh 30.20 in1022.7 mb 0.00 in0.0 mm 0.00 in0.0 mm 1.29 in32.8 mm
02:15 PM 61.5°F16.4°C 61.3°F16.3°C 99% 1.6 mph N2.6 kmh N 5.4 mph8.7 kmh 30.20 in1022.7 mb 0.00 in0.0 mm 0.00 in0.0 mm 1.29 in32.8 mm
02:30 PM 62.1°F16.7°C 61.8°F16.6°C 99% 2.2 mph NE3.5 kmh NE 4.5 mph7.2 kmh 30.18 in1022.0 mb 0.00 in0.0 mm 0.00 in0.0 mm 1.29 in32.8 mm
02:45 PM 62.8°F17.1°C 62.5°F16.9°C 99% 1.6 mph N2.6 kmh N 3.8 mph6.1 kmh 30.19 in1022.4 mb 0.00 in0.0 mm 0.00 in0.0 mm 1.29 in32.8 mm
03:00 PM 63.0°F17.2°C 62.7°F17.1°C 99% 2.2 mph NW3.5 kmh NW 3.8 mph6.1 kmh 30.19 in1022.4 mb 0.00 in0.0 mm 0.00 in0.0 mm 1.29 in32.8 mm
03:15 PM 63.0°F17.2°C 62.7°F17.1°C 99% 0.7 mph NNW1.1 kmh NNW 3.8 mph6.1 kmh 30.19 in1022.4 mb 0.00 in0.0 mm 0.00 in0.0 mm 1.29 in32.8 mm
03:30 PM 62.6°F17.0°C 62.3°F16.8°C 99% 0.7 mph NW1.1 kmh NW 5.4 mph8.7 kmh 30.19 in1022.4 mb 0.00 in0.0 mm 0.00 in0.0 mm 1.29 in32.8 mm
03:45 PM 62.1°F16.7°C 61.8°F16.6°C 99% 1.6 mph NNW2.6 kmh NNW 6.0 mph9.7 kmh 30.19 in1022.4 mb 0.00 in0.0 mm 0.00 in0.0 mm 1.29 in32.8 mm
04:00 PM 61.5°F16.4°C 61.3°F16.3°C 99% 3.1 mph NW5.0 kmh NW 5.4 mph8.7 kmh 30.19 in1022.4 mb 0.00 in0.0 mm 0.00 in0.0 mm 1.29 in32.8 mm
04:15 PM 61.2°F16.2°C 60.9°F16.1°C 99% 1.6 mph NW2.6 kmh NW 6.9 mph11.1 kmh 30.19 in1022.4 mb 0.00 in0.0 mm 0.00 in0.0 mm 1.29 in32.8 mm
04:30 PM 60.8°F16.0°C 60.5°F15.8°C 99% 3.1 mph NNW5.0 kmh NNW 5.4 mph8.7 kmh 30.19 in1022.4 mb 0.00 in0.0 mm 0.00 in0.0 mm 1.29 in32.8 mm
04:45 PM 60.1°F15.6°C 59.8°F15.4°C 99% 2.2 mph NW3.5 kmh NW 5.4 mph8.7 kmh 30.19 in1022.4 mb 0.00 in0.0 mm 0.00 in0.0 mm 1.29 in32.8 mm
05:00 PM 59.4°F15.2°C 59.1°F15.1°C 99% 3.8 mph NNW6.1 kmh NNW 7.6 mph12.2 kmh 30.21 in1023.0 mb 0.00 in0.0 mm 0.00 in0.0 mm 1.29 in32.8 mm
05:15 PM 57.9°F14.4°C 57.7°F14.3°C 99% 2.2 mph N3.5 kmh N 9.2 mph14.8 kmh 30.20 in1022.7 mb 0.00 in0.0 mm 0.00 in0.0 mm 1.29 in32.8 mm
05:30 PM 57.4°F14.1°C 57.1°F13.9°C 99% 4.5 mph N7.2 kmh N 9.8 mph15.8 kmh 30.20 in1022.7 mb 0.00 in0.0 mm 0.00 in0.0 mm 1.29 in32.8 mm
05:45 PM 57.2°F14.0°C 56.9°F13.8°C 99% 3.1 mph N5.0 kmh N 7.6 mph12.2 kmh 30.19 in1022.4 mb 0.00 in0.0 mm 0.00 in0.0 mm 1.29 in32.8 mm
06:00 PM 57.0°F13.9°C 56.8°F13.8°C 99% 2.2 mph N3.5 kmh N 5.4 mph8.7 kmh 30.19 in1022.4 mb 0.00 in0.0 mm 0.00 in0.0 mm 1.29 in32.8 mm
06:15 PM 56.8°F13.8°C 56.6°F13.7°C 99% 0.7 mph E1.1 kmh E 3.8 mph6.1 kmh 30.17 in1021.7 mb 0.00 in0.0 mm 0.00 in0.0 mm 1.29 in32.8 mm
06:30 PM 56.3°F13.5°C 56.0°F13.3°C 99% Calm Calm 1.6 mph2.6 kmh 30.18 in1022.0 mb 0.00 in0.0 mm 0.00 in0.0 mm 1.29 in32.8 mm
06:45 PM 55.9°F13.3°C 55.7°F13.2°C 99% Calm Calm 1.6 mph2.6 kmh 30.17 in1021.7 mb 0.00 in0.0 mm 0.00 in0.0 mm 1.29 in32.8 mm
07:00 PM 55.4°F13.0°C 55.1°F12.8°C 99% Calm Calm 1.6 mph2.6 kmh 30.17 in1021.7 mb 0.00 in0.0 mm 0.00 in0.0 mm 1.29 in32.8 mm
07:15 PM 54.9°F12.7°C 54.6°F12.6°C 99% Calm Calm 1.6 mph2.6 kmh 30.16 in1021.3 mb 0.00 in0.0 mm 0.00 in0.0 mm 1.29 in32.8 mm
07:30 PM 54.3°F12.4°C 54.1°F12.3°C 99% 0.7 mph SW1.1 kmh SW 2.2 mph3.5 kmh 30.17 in1021.7 mb 0.00 in0.0 mm 0.00 in0.0 mm 1.29 in32.8 mm
07:45 PM 53.8°F12.1°C 53.5°F11.9°C 99% 0.7 mph SW1.1 kmh SW 2.2 mph3.5 kmh 30.18 in1022.0 mb 0.00 in0.0 mm 0.00 in0.0 mm 1.29 in32.8 mm
08:00 PM 53.8°F12.1°C 53.5°F11.9°C 99% 0.7 mph NNW1.1 kmh NNW 1.6 mph2.6 kmh 30.16 in1021.3 mb 0.00 in0.0 mm 0.00 in0.0 mm 1.29 in32.8 mm
08:15 PM 53.8°F12.1°C 53.5°F11.9°C 99% Calm Calm 2.2 mph3.5 kmh 30.16 in1021.3 mb 0.00 in0.0 mm 0.00 in0.0 mm 1.29 in32.8 mm
08:30 PM 53.6°F12.0°C 53.3°F11.8°C 99% 0.7 mph SSW1.1 kmh SSW 2.2 mph3.5 kmh 30.17 in1021.7 mb 0.00 in0.0 mm 0.00 in0.0 mm 1.29 in32.8 mm
08:45 PM 54.0°F12.2°C 53.7°F12.1°C 99% 0.7 mph NW1.1 kmh NW 2.2 mph3.5 kmh 30.17 in1021.7 mb 0.00 in0.0 mm 0.00 in0.0 mm 1.29 in32.8 mm
09:00 PM 54.1°F12.3°C 53.9°F12.2°C 99% 3.1 mph NNW5.0 kmh NNW 4.5 mph7.2 kmh 30.16 in1021.3 mb 0.00 in0.0 mm 0.00 in0.0 mm 1.29 in32.8 mm
09:15 PM 54.5°F12.5°C 54.2°F12.3°C 99% 1.6 mph NNE2.6 kmh NNE 3.1 mph5.0 kmh 30.17 in1021.7 mb 0.00 in0.0 mm 0.00 in0.0 mm 1.29 in32.8 mm
09:30 PM 54.9°F12.7°C 54.6°F12.6°C 99% 0.7 mph E1.1 kmh E 3.1 mph5.0 kmh 30.17 in1021.7 mb 0.00 in0.0 mm 0.00 in0.0 mm 1.29 in32.8 mm
09:45 PM 54.9°F12.7°C 54.6°F12.6°C 99% Calm Calm 4.5 mph7.2 kmh 30.17 in1021.7 mb 0.00 in0.0 mm 0.00 in0.0 mm 1.29 in32.8 mm
10:00 PM 54.9°F12.7°C 54.6°F12.6°C 99% 0.7 mph NE1.1 kmh NE 3.8 mph6.1 kmh 30.16 in1021.3 mb 0.00 in0.0 mm 0.00 in0.0 mm 1.29 in32.8 mm
10:15 PM 54.9°F12.7°C 54.6°F12.6°C 99% Calm Calm 1.6 mph2.6 kmh 30.15 in1021.0 mb 0.00 in0.0 mm 0.00 in0.0 mm 1.29 in32.8 mm
10:30 PM 54.9°F12.7°C 54.6°F12.6°C 99% 0.7 mph NW1.1 kmh NW 1.6 mph2.6 kmh 30.15 in1021.0 mb 0.00 in0.0 mm 0.00 in0.0 mm 1.29 in32.8 mm
10:45 PM 55.0°F12.8°C 54.8°F12.7°C 99% 0.7 mph NNE1.1 kmh NNE 3.8 mph6.1 kmh 30.14 in1020.7 mb 0.00 in0.0 mm 0.00 in0.0 mm 1.29 in32.8 mm
11:00 PM 55.0°F12.8°C 54.8°F12.7°C 99% 0.7 mph NE1.1 kmh NE 4.5 mph7.2 kmh 30.12 in1020.0 mb 0.00 in0.0 mm 0.00 in0.0 mm 1.29 in32.8 mm
11:15 PM 55.0°F12.8°C 54.8°F12.7°C 99% 1.6 mph NE2.6 kmh NE 5.4 mph8.7 kmh 30.11 in1019.6 mb 0.00 in0.0 mm 0.00 in0.0 mm 1.29 in32.8 mm
11:30 PM 55.0°F12.8°C 54.8°F12.7°C 99% 0.7 mph NE1.1 kmh NE 4.5 mph7.2 kmh 30.11 in1019.6 mb 0.00 in0.0 mm 0.00 in0.0 mm 1.29 in32.8 mm
11:45 PM 55.2°F12.9°C 55.0°F12.8°C 99% 1.6 mph SE2.6 kmh SE 3.1 mph5.0 kmh 30.11 in1019.6 mb 0.00 in0.0 mm 0.00 in0.0 mm 1.29 in32.8 mm